Time;durP1;ratioP1;P1;durP2;ratioP2;P2;SDS_P1;SDS_P2;PMS_P1;PMS_P2;Temp;Humidity;BMP_temperature;BMP_pressure;BME280_temperature;BME280_humidity;BME280_pressure;Samples;Min_cycle;Max_cycle;Signal;HPM_P1;HPM_P2
2021/06/30 00:03:28;;;;;;;5.55;2.08;;;;;;;22.34;81.74;99246.81;2702609;88;21076;-64
2021/06/30 00:07:32;;;;;;;11.75;1.92;;;;;;;22.25;82.48;99247.66;2742281;86;21028;-63
2021/06/30 00:11:34;;;;;;;6.25;1.75;;;;;;;22.17;83.44;99241.72;2742099;86;21482;-65
2021/06/30 00:15:40;;;;;;;2.40;1.70;;;;;;;22.13;84.32;99243.23;2742023;87;20989;-64
2021/06/30 00:19:43;;;;;;;5.20;1.90;;;;;;;22.08;84.50;99239.34;2749057;86;21102;-63
2021/06/30 00:23:45;;;;;;;1.52;1.42;;;;;;;22.03;85.13;99243.77;2702424;88;21048;-64
2021/06/30 00:27:50;;;;;;;3.10;1.40;;;;;;;21.95;85.70;99239.48;2720147;87;21035;-64
2021/06/30 00:31:53;;;;;;;2.67;2.35;;;;;;;21.94;86.20;99212.12;2738047;86;21059;-64
2021/06/30 00:35:56;;;;;;;4.45;2.15;;;;;;;21.89;86.34;99201.16;2691888;87;21024;-64
2021/06/30 00:39:59;;;;;;;4.53;2.67;;;;;;;21.85;87.29;99209.44;2717490;86;21078;-64
2021/06/30 00:44:02;;;;;;;3.50;1.87;;;;;;;21.82;87.67;99215.60;2720244;86;21016;-63
2021/06/30 00:48:06;;;;;;;3.65;1.80;;;;;;;21.81;88.04;99203.13;2724259;85;21063;-63
2021/06/30 00:52:09;;;;;;;3.75;1.80;;;;;;;21.89;87.77;99186.27;2734968;86;21043;-63
2021/06/30 00:56:14;;;;;;;6.12;2.65;;;;;;;21.93;87.17;99171.22;2722585;86;20999;-65
2021/06/30 01:00:17;;;;;;;5.95;2.98;;;;;;;21.86;87.23;99148.28;2734568;85;21018;-64
2021/06/30 01:04:20;;;;;;;5.22;2.98;;;;;;;21.65;87.88;99136.08;2722069;86;21019;-64
2021/06/30 01:08:23;;;;;;;4.37;2.85;;;;;;;21.46;88.76;99123.88;2722403;86;21008;-65
2021/06/30 01:12:25;;;;;;;5.47;3.10;;;;;;;21.45;88.93;99102.45;2724998;86;21040;-64
2021/06/30 01:16:28;;;;;;;6.65;3.58;;;;;;;21.44;89.43;99075.11;2744533;85;20981;-65
2021/06/30 01:20:31;;;;;;;8.20;3.92;;;;;;;21.42;90.14;99069.95;2722271;86;21119;-65
2021/06/30 01:24:36;;;;;;;5.17;3.85;;;;;;;21.37;90.75;99126.06;2722563;86;21082;-64
2021/06/30 01:28:40;;;;;;;5.55;2.95;;;;;;;21.38;91.60;99189.92;2722572;86;21039;-64
2021/06/30 01:32:44;;;;;;;5.92;3.80;;;;;;;21.40;91.56;99178.86;2723807;86;21031;-63
2021/06/30 01:36:51;;;;;;;13.95;5.10;;;;;;;21.31;91.45;99172.11;2715474;85;21027;-64
2021/06/30 01:40:57;;;;;;;5.75;4.40;;;;;;;21.24;92.04;99167.60;2715168;85;21033;-63
2021/06/30 01:45:00;;;;;;;5.08;3.90;;;;;;;21.29;91.98;99172.32;2729181;85;21051;-65
2021/06/30 01:49:04;;;;;;;9.73;4.62;;;;;;;21.25;91.42;99211.17;2733828;86;21055;-65
2021/06/30 01:53:07;;;;;;;10.20;6.17;;;;;;;21.19;92.38;99230.16;2747655;86;21513;-65
2021/06/30 01:57:10;;;;;;;8.55;5.50;;;;;;;21.18;92.98;99225.80;2721731;86;21047;-65
2021/06/30 02:01:13;;;;;;;6.83;6.00;;;;;;;21.23;93.01;99220.03;2666857;87;21059;-65
2021/06/30 02:05:22;;;;;;;5.85;4.42;;;;;;;21.30;92.78;99202.37;2697566;87;21592;-67
2021/06/30 02:09:24;;;;;;;8.83;3.62;;;;;;;21.31;92.41;99197.26;2723631;86;21039;-65
2021/06/30 02:13:27;;;;;;;4.12;2.83;;;;;;;21.27;92.02;99194.70;2721215;86;21102;-65
2021/06/30 02:17:30;;;;;;;5.47;2.72;;;;;;;21.18;91.74;99194.70;2725784;86;21011;-65
2021/06/30 02:21:34;;;;;;;4.35;2.22;;;;;;;21.10;91.28;99202.03;2721421;86;21770;-65
2021/06/30 02:25:37;;;;;;;3.08;1.72;;;;;;;21.09;91.23;99203.63;2735191;86;21603;-66
2021/06/30 02:29:40;;;;;;;3.77;2.60;;;;;;;21.09;91.06;99188.75;2721217;86;21051;-65
2021/06/30 02:33:44;;;;;;;10.15;2.37;;;;;;;21.12;91.12;99187.76;2721153;86;22364;-65
2021/06/30 02:37:50;;;;;;;6.45;2.02;;;;;;;21.17;90.83;99194.41;2721187;86;21043;-65
2021/06/30 02:41:52;;;;;;;;;;;;;;;21.11;89.73;99198.81;2723793;86;21400;-65
2021/06/30 02:45:55;;;;;;;18.02;1.95;;;;;;;21.08;89.83;99197.38;2725460;86;20098;-66
2021/06/30 02:49:58;;;;;;;2.95;1.82;;;;;;;21.04;89.20;99202.92;2721494;86;21038;-66
2021/06/30 02:54:00;;;;;;;3.17;1.75;;;;;;;21.00;89.00;99212.53;2721611;86;21035;-66
2021/06/30 02:58:03;;;;;;;2.67;1.55;;;;;;;20.96;89.03;99218.89;2705036;86;22330;-66
2021/06/30 03:02:06;;;;;;;2.67;1.55;;;;;;;20.95;89.16;99226.70;2746953;86;21020;-65
2021/06/30 03:06:09;;;;;;;3.05;2.15;;;;;;;21.00;89.03;99226.55;2719336;86;21031;-64
2021/06/30 03:10:13;;;;;;;3.08;1.60;;;;;;;21.00;88.97;99234.66;2722105;86;21004;-65
2021/06/30 03:14:16;;;;;;;4.20;1.50;;;;;;;21.01;88.94;99234.45;2721152;86;21039;-65
2021/06/30 03:18:20;;;;;;;4.42;1.95;;;;;;;20.99;88.71;99232.50;2709238;86;21583;-64
2021/06/30 03:22:25;;;;;;;4.03;1.90;;;;;;;21.00;89.10;99234.66;2719999;86;21027;-65
2021/06/30 03:26:28;;;;;;;2.52;1.77;;;;;;;21.08;89.03;99233.05;2723900;86;21008;-66
2021/06/30 03:30:31;;;;;;;3.22;2.05;;;;;;;21.11;89.04;99229.91;2723657;85;21075;-65
2021/06/30 03:34:36;;;;;;;2.02;1.60;;;;;;;21.07;89.03;99216.53;2728006;86;21059;-66
2021/06/30 03:38:40;;;;;;;5.72;1.65;;;;;;;21.04;89.26;99218.33;2717739;86;21019;-65
2021/06/30 03:42:43;;;;;;;9.70;2.08;;;;;;;20.98;89.24;99223.55;2729776;86;21036;-66
2021/06/30 03:46:46;;;;;;;4.60;2.50;;;;;;;20.98;89.72;99222.73;2729180;85;21015;-65
2021/06/30 03:50:49;;;;;;;2.47;1.82;;;;;;;20.94;89.84;99223.69;2728403;86;21054;-66
2021/06/30 03:54:55;;;;;;;4.55;1.52;;;;;;;20.85;90.63;99220.97;2731737;86;21071;-65
2021/06/30 03:58:58;;;;;;;5.17;2.45;;;;;;;20.76;91.37;99224.44;2743632;85;21040;-65
2021/06/30 04:03:01;;;;;;;8.00;2.27;;;;;;;20.63;92.16;99231.27;2748117;86;21028;-63
2021/06/30 04:07:05;;;;;;;3.35;2.10;;;;;;;20.54;93.11;99237.45;2732841;86;21007;-62
2021/06/30 04:11:07;;;;;;;4.97;2.65;;;;;;;20.47;93.79;99231.28;2733137;86;21006;-63
2021/06/30 04:15:12;;;;;;;6.33;3.15;;;;;;;20.39;94.56;99235.87;2732976;86;21083;-64
2021/06/30 04:19:15;;;;;;;5.62;3.05;;;;;;;20.35;94.89;99248.69;2732530;85;21067;-63
2021/06/30 04:23:17;;;;;;;3.17;2.40;;;;;;;20.36;95.31;99257.09;2686158;88;21008;-63
2021/06/30 04:27:20;;;;;;;6.45;2.80;;;;;;;20.36;95.50;99261.14;2710707;88;21011;-63
2021/06/30 04:31:23;;;;;;;6.37;2.62;;;;;;;20.39;95.51;99257.47;2731126;87;21107;-61
2021/06/30 04:35:26;;;;;;;3.60;2.95;;;;;;;20.38;95.60;99257.70;2731260;87;21502;-62
2021/06/30 04:39:28;;;;;;;3.10;2.35;;;;;;;20.35;95.93;99260.30;2732939;87;21054;-62
2021/06/30 04:43:31;;;;;;;3.72;2.30;;;;;;;20.30;96.39;99260.63;2732524;87;21124;-61
2021/06/30 04:47:34;;;;;;;3.37;2.45;;;;;;;20.22;96.77;99264.41;2685022;88;21060;-62
2021/06/30 04:51:37;;;;;;;9.58;2.98;;;;;;;20.16;97.58;99272.02;2709907;88;21063;-62
2021/06/30 04:55:40;;;;;;;4.78;2.47;;;;;;;20.19;97.87;99271.59;2730730;87;21123;-62
2021/06/30 04:59:42;;;;;;;2.87;2.08;;;;;;;20.21;98.37;99278.44;2730926;87;21075;-62
2021/06/30 05:03:45;;;;;;;4.08;2.25;;;;;;;20.25;98.45;99291.00;2731455;87;20981;-62
2021/06/30 05:07:48;;;;;;;3.98;2.50;;;;;;;20.32;98.51;99288.25;2731145;86;21067;-62
2021/06/30 05:11:50;;;;;;;2.10;1.92;;;;;;;20.35;98.42;99294.06;2731264;86;21040;-62
2021/06/30 05:15:53;;;;;;;2.70;2.20;;;;;;;20.41;98.31;99294.54;2731380;87;21032;-62
2021/06/30 05:19:57;;;;;;;2.95;2.17;;;;;;;20.43;98.19;99301.09;2730982;87;21065;-63
2021/06/30 05:24:00;;;;;;;3.00;2.40;;;;;;;20.49;98.04;99304.27;2731603;87;21051;-63
2021/06/30 05:28:03;;;;;;;2.10;1.90;;;;;;;20.49;97.79;99304.81;2731489;86;20993;-62
2021/06/30 05:32:06;;;;;;;2.12;1.95;;;;;;;20.49;97.68;99297.52;2731072;86;21084;-63
2021/06/30 05:36:09;;;;;;;2.80;2.52;;;;;;;20.51;97.56;99305.42;2731452;87;21104;-63
2021/06/30 05:40:13;;;;;;;4.85;2.35;;;;;;;20.56;98.02;99306.95;2731632;87;21012;-63
2021/06/30 05:44:16;;;;;;;2.30;2.10;;;;;;;20.64;98.54;99307.22;2731627;87;21048;-63
2021/06/30 05:48:19;;;;;;;5.45;2.02;;;;;;;20.74;98.34;99317.05;2731413;87;21052;-63
2021/06/30 05:52:22;;;;;;;4.15;1.90;;;;;;;20.83;98.47;99318.47;2731154;87;21036;-63
2021/06/30 05:56:25;;;;;;;3.85;1.85;;;;;;;20.93;98.04;99327.45;2731775;87;21016;-63
2021/06/30 06:00:28;;;;;;;2.47;2.27;;;;;;;21.01;98.04;99319.61;2731268;87;21071;-63
2021/06/30 06:04:31;;;;;;;2.58;2.37;;;;;;;21.14;98.48;99328.15;2731866;87;21027;-63
2021/06/30 06:08:34;;;;;;;3.25;1.77;;;;;;;21.35;99.25;99327.47;2731720;87;21114;-64
2021/06/30 06:12:37;;;;;;;2.45;2.20;;;;;;;21.55;98.51;99320.02;2731969;86;21024;-65
2021/06/30 06:16:40;;;;;;;2.85;2.42;;;;;;;21.83;98.88;99314.70;2731829;86;21339;-64
2021/06/30 06:20:43;;;;;;;1.80;1.70;;;;;;;22.15;96.85;99319.14;2732207;87;21080;-64
2021/06/30 06:24:46;;;;;;;2.77;2.27;;;;;;;22.35;95.57;99325.66;2732260;87;20992;-64
2021/06/30 06:28:49;;;;;;;1.10;1.00;;;;;;;22.57;95.38;99333.34;2732469;87;21017;-63
2021/06/30 06:32:52;;;;;;;2.22;1.55;;;;;;;22.50;92.07;99326.68;2745156;86;21016;-64
2021/06/30 06:36:57;;;;;;;1.95;1.65;;;;;;;22.39;91.46;99337.70;2758749;86;21031;-63
2021/06/30 06:40:59;;;;;;;17.25;2.08;;;;;;;22.24;90.66;99335.92;2738809;86;21036;-63
2021/06/30 06:45:04;;;;;;;3.20;1.50;;;;;;;22.61;93.29;99344.56;2758880;86;21047;-64
2021/06/30 06:49:08;;;;;;;1.62;0.88;;;;;;;23.16;91.70;99336.79;2758974;86;21071;-64
2021/06/30 06:53:11;;;;;;;1.75;1.30;;;;;;;23.68;88.38;99337.56;2759336;86;21055;-64
2021/06/30 06:57:16;;;;;;;0.98;0.98;;;;;;;24.00;86.81;99338.23;2759307;86;21035;-64
2021/06/30 07:01:19;;;;;;;1.02;0.75;;;;;;;23.78;83.01;99338.33;2758970;86;21106;-63
2021/06/30 07:05:22;;;;;;;0.80;0.65;;;;;;;23.85;83.97;99331.40;2759360;86;21027;-64
2021/06/30 07:09:26;;;;;;;1.15;1.05;;;;;;;23.89;84.16;99349.41;2758962;86;21043;-63
2021/06/30 07:13:28;;;;;;;2.05;0.85;;;;;;;23.70;82.26;99359.02;2759360;86;21015;-64
2021/06/30 07:17:33;;;;;;;0.78;0.65;;;;;;;23.70;84.79;99365.81;2759403;86;22395;-64
2021/06/30 07:21:36;;;;;;;0.80;0.77;;;;;;;23.69;82.37;99370.95;2740050;86;21556;-64
2021/06/30 07:25:40;;;;;;;1.67;0.68;;;;;;;23.50;83.51;99381.90;2759299;86;21059;-64
2021/06/30 07:29:43;;;;;;;1.45;0.57;;;;;;;23.44;83.09;99377.42;2759077;86;21003;-64
2021/06/30 07:33:51;;;;;;;2.40;0.88;;;;;;;23.33;83.68;99383.12;2753608;86;21043;-64
2021/06/30 07:37:54;;;;;;;2.42;0.60;;;;;;;23.17;82.33;99381.84;2750990;86;21070;-64
2021/06/30 07:41:57;;;;;;;1.05;0.90;;;;;;;23.02;82.86;99390.95;2750824;86;21024;-64
2021/06/30 07:46:00;;;;;;;0.55;0.55;;;;;;;23.07;84.53;99377.52;2750733;86;21048;-64
2021/06/30 07:50:08;;;;;;;2.45;0.90;;;;;;;23.39;84.73;99382.72;2750807;86;21071;-64
2021/06/30 07:54:10;;;;;;;0.60;0.60;;;;;;;23.76;85.93;99381.70;2751179;86;21024;-64
2021/06/30 07:58:16;;;;;;;1.30;1.20;;;;;;;23.98;82.54;99387.38;2750829;86;21008;-64
2021/06/30 08:02:19;;;;;;;1.22;1.10;;;;;;;24.11;81.01;99382.27;2751285;86;21023;-64
2021/06/30 08:06:21;;;;;;;1.90;0.82;;;;;;;23.95;79.27;99394.62;2751087;86;21051;-64
2021/06/30 08:10:24;;;;;;;1.57;1.37;;;;;;;23.72;80.33;99393.55;2750935;86;21004;-64
2021/06/30 08:14:28;;;;;;;5.80;1.70;;;;;;;23.53;80.07;99399.07;2750783;86;21964;-65
2021/06/30 08:18:31;;;;;;;3.22;2.45;;;;;;;23.40;80.69;99403.37;2751241;86;21059;-65
2021/06/30 08:22:36;;;;;;;1.98;1.47;;;;;;;23.63;81.87;99397.69;2751212;86;21020;-64
2021/06/30 08:26:39;;;;;;;2.57;2.37;;;;;;;24.14;82.65;99404.03;2751472;86;20992;-65
2021/06/30 08:30:42;;;;;;;1.65;1.10;;;;;;;24.61;79.15;99402.61;2751561;86;21047;-65
2021/06/30 08:34:44;;;;;;;1.42;1.32;;;;;;;25.18;77.29;99399.66;2737096;86;21044;-64
2021/06/30 08:38:47;;;;;;;1.20;1.00;;;;;;;25.23;75.10;99402.45;2733967;86;21075;-65
2021/06/30 08:42:50;;;;;;;1.98;1.20;;;;;;;25.06;75.45;99412.48;2733492;86;21045;-64
2021/06/30 08:46:57;;;;;;;1.62;1.50;;;;;;;24.74;74.82;99421.06;2733949;87;21048;-65
2021/06/30 08:51:02;;;;;;;1.62;1.32;;;;;;;24.51;74.08;99412.74;2733854;87;21016;-65
2021/06/30 08:55:08;;;;;;;1.32;1.22;;;;;;;24.49;76.24;99428.98;2733862;86;21085;-65
2021/06/30 08:59:11;;;;;;;1.45;1.35;;;;;;;24.94;75.84;99421.50;2733929;86;21060;-65
2021/06/30 09:03:18;;;;;;;1.82;1.42;;;;;;;25.16;74.70;99434.45;2733811;87;21012;-65
2021/06/30 09:07:21;;;;;;;2.60;1.10;;;;;;;25.32;74.34;99424.66;2733923;86;21004;-65
2021/06/30 09:11:27;;;;;;;4.40;1.37;;;;;;;25.42;71.86;99418.57;2733815;87;21061;-65
2021/06/30 09:15:35;;;;;;;1.87;1.55;;;;;;;25.50;72.19;99422.82;2733886;86;21000;-66
2021/06/30 09:19:58;;;;;;;;;;;;;;;25.63;73.04;99429.84;2735814;87;21131;-65
2021/06/30 09:24:20;;;;;;;3.58;1.92;;;;;;;25.68;73.23;99427.19;2749432;85;20112;-64
2021/06/30 09:28:27;;;;;;;4.75;2.20;;;;;;;25.61;70.21;99418.38;2749360;85;21000;-64
2021/06/30 09:32:29;;;;;;;3.25;1.40;;;;;;;25.48;70.40;99433.94;2749224;85;21076;-64
2021/06/30 09:36:51;;;;;;;2.05;1.82;;;;;;;25.21;70.24;99429.09;2759861;86;21091;-65
2021/06/30 09:40:53;;;;;;;2.22;1.60;;;;;;;24.94;71.36;99435.09;2759788;86;21061;-65
2021/06/30 09:45:17;;;;;;;4.60;1.62;;;;;;;25.09;72.71;99431.03;2759253;86;21091;-65
2021/06/30 09:49:20;;;;;;;2.10;1.60;;;;;;;25.30;72.03;99432.77;2759929;86;21032;-66
2021/06/30 09:53:40;;;;;;;1.85;1.32;;;;;;;25.56;70.43;99423.73;2759951;86;21071;-64
2021/06/30 09:57:43;;;;;;;2.12;1.70;;;;;;;25.64;68.75;99425.48;2760053;86;21043;-65
2021/06/30 10:02:09;;;;;;;3.37;1.90;;;;;;;25.72;67.92;99422.89;2760250;86;21024;-65
2021/06/30 10:06:27;;;;;;;8.48;2.02;;;;;;;25.49;68.21;99438.31;2759241;86;21510;-64
2021/06/30 10:10:29;;;;;;;1.92;1.67;;;;;;;25.52;67.35;99430.20;2759980;86;21082;-64
2021/06/30 10:14:32;;;;;;;6.15;1.70;;;;;;;25.37;67.61;99438.91;2760020;86;21051;-64
2021/06/30 10:18:35;;;;;;;6.12;2.08;;;;;;;25.35;67.61;99435.58;2759811;86;21055;-65
2021/06/30 10:22:37;;;;;;;3.22;1.72;;;;;;;25.14;67.48;99450.16;2759945;86;21027;-64
2021/06/30 10:26:41;;;;;;;3.98;2.47;;;;;;;25.17;69.28;99449.70;2759277;86;21122;-64
2021/06/30 10:30:45;;;;;;;10.15;2.85;;;;;;;25.04;69.42;99462.22;2759683;86;21027;-65
2021/06/30 10:34:55;;;;;;;4.53;3.07;;;;;;;24.99;71.73;99463.49;2754334;86;21028;-65
2021/06/30 10:38:58;;;;;;;4.72;3.35;;;;;;;25.05;69.75;99455.71;2751344;86;21040;-64
2021/06/30 10:43:13;;;;;;;3.90;3.42;;;;;;;25.31;69.35;99442.58;2751744;86;21095;-65
2021/06/30 10:47:41;;;;;;;5.08;4.00;;;;;;;25.64;70.18;99461.44;2751691;86;21036;-64
2021/06/30 10:51:49;;;;;;;4.22;3.83;;;;;;;25.91;68.79;99460.78;2745627;86;21012;-64
2021/06/30 10:55:55;;;;;;;4.25;3.85;;;;;;;26.05;69.00;99451.76;2751891;86;21035;-64
2021/06/30 11:00:14;;;;;;;4.62;3.75;;;;;;;25.93;67.26;99457.27;2751719;86;21047;-65
2021/06/30 11:04:32;;;;;;;8.40;4.72;;;;;;;25.83;68.25;99469.38;2751857;86;21019;-65
2021/06/30 11:09:25;;;;;;;4.50;3.60;;;;;;;25.42;67.70;99471.65;2751319;86;21031;-65
2021/06/30 11:14:00;;;;;;;5.90;4.47;;;;;;;24.97;68.04;99473.23;2751667;86;21032;-64
2021/06/30 11:18:28;;;;;;;6.90;4.03;;;;;;;24.65;69.22;99473.63;2751620;86;21032;-63
2021/06/30 11:22:33;;;;;;;5.20;4.17;;;;;;;24.67;70.74;99481.03;2749101;86;21024;-64
2021/06/30 11:26:38;;;;;;;6.15;4.28;;;;;;;24.86;68.33;99479.52;2751892;86;21119;-64
2021/06/30 11:30:41;;;;;;;4.75;4.17;;;;;;;24.79;68.91;99483.77;2751801;86;21020;-64
2021/06/30 11:34:43;;;;;;;5.45;3.83;;;;;;;24.79;68.91;99486.48;2740966;86;21024;-64
2021/06/30 11:38:47;;;;;;;4.30;3.95;;;;;;;24.85;69.75;99492.83;2734047;87;21071;-64
2021/06/30 11:42:53;;;;;;;3.30;3.00;;;;;;;25.10;72.03;99496.61;2734238;86;21072;-64
2021/06/30 11:47:03;;;;;;;3.98;3.58;;;;;;;25.29;69.80;99501.88;2734133;87;21040;-64
2021/06/30 11:51:11;;;;;;;4.58;3.87;;;;;;;25.49;70.56;99505.56;2734244;87;21075;-64
2021/06/30 11:55:15;;;;;;;6.33;3.95;;;;;;;25.76;69.56;99507.14;2734079;86;21056;-64
2021/06/30 11:59:22;;;;;;;7.12;4.92;;;;;;;25.78;68.66;99507.72;2734044;86;21028;-63
2021/06/30 12:03:25;;;;;;;6.92;5.50;;;;;;;25.76;66.61;99507.14;2734227;86;21053;-64
2021/06/30 12:07:48;;;;;;;5.92;5.42;;;;;;;25.71;66.73;99501.58;2734278;87;20996;-64
2021/06/30 12:11:57;;;;;;;5.83;5.22;;;;;;;25.79;67.42;99509.89;2733987;87;21033;-64
2021/06/30 12:16:00;;;;;;;5.80;4.55;;;;;;;25.85;67.96;99515.73;2734165;86;21044;-63
2021/06/30 12:20:06;;;;;;;7.75;4.22;;;;;;;26.00;67.23;99511.07;2733725;87;21107;-63
2021/06/30 12:24:15;;;;;;;4.10;3.70;;;;;;;26.01;65.27;99498.26;2734031;87;21016;-64
2021/06/30 12:28:19;;;;;;;4.85;4.00;;;;;;;26.04;65.11;99501.33;2734057;86;21068;-64
2021/06/30 12:32:24;;;;;;;7.60;3.92;;;;;;;26.13;65.57;99507.19;2734266;87;21024;-64
2021/06/30 12:36:27;;;;;;;4.50;3.00;;;;;;;26.26;66.86;99508.77;2759820;86;21016;-64
2021/06/30 12:40:32;;;;;;;3.40;2.95;;;;;;;26.22;65.80;99502.18;2760233;86;21059;-64
2021/06/30 12:44:56;;;;;;;3.10;2.83;;;;;;;26.34;66.21;99510.26;2760575;86;21043;-64
2021/06/30 12:49:00;;;;;;;4.05;3.65;;;;;;;26.42;65.09;99507.65;2759962;86;30847;-64
2021/06/30 12:53:11;;;;;;;3.08;2.80;;;;;;;26.48;67.66;99502.02;2738847;86;21032;-63
2021/06/30 12:57:14;;;;;;;4.15;2.92;;;;;;;26.72;67.79;99490.89;2760233;86;21023;-65
2021/06/30 13:01:32;;;;;;;3.60;2.95;;;;;;;26.88;64.23;99491.93;2760375;86;21043;-64
2021/06/30 13:05:36;;;;;;;3.85;2.98;;;;;;;26.75;64.62;99495.83;2760438;86;21091;-64
2021/06/30 13:09:39;;;;;;;2.83;2.60;;;;;;;26.41;63.38;99500.55;2760178;86;21019;-67
2021/06/30 13:14:10;;;;;;;3.17;2.87;;;;;;;26.32;65.38;99495.50;2758555;86;21671;-66
2021/06/30 13:18:18;;;;;;;3.27;2.98;;;;;;;26.30;64.67;99484.03;2762777;85;21565;-66
2021/06/30 13:22:30;;;;;;;3.20;2.92;;;;;;;26.50;65.71;99487.60;2762983;84;21090;-64
2021/06/30 13:35:33;;;;;;;1.90;1.80;;;;;;;27.20;63.88;99479.47;2706682;85;21542;-63
2021/06/30 13:39:37;;;;;;;5.60;2.95;;;;;;;27.47;62.76;99478.67;2710783;87;21027;-66
2021/06/30 13:43:40;;;;;;;1.95;1.85;;;;;;;27.65;61.65;99476.13;2731799;86;21095;-65
2021/06/30 13:47:44;;;;;;;2.12;2.02;;;;;;;27.72;61.99;99468.56;2686777;88;21103;-66
2021/06/30 13:51:47;;;;;;;2.65;2.37;;;;;;;27.72;61.42;99466.35;2713755;87;21023;-66
2021/06/30 13:55:50;;;;;;;4.70;2.35;;;;;;;27.74;60.09;99466.39;2687782;88;21016;-66
2021/06/30 13:59:53;;;;;;;2.22;2.08;;;;;;;27.89;61.96;99473.04;2711644;87;21032;-65
2021/06/30 14:04:03;;;;;;;2.58;2.35;;;;;;;27.72;59.90;99462.26;2713623;87;21082;-65
2021/06/30 14:08:13;;;;;;;2.12;1.92;;;;;;;27.61;60.63;99471.74;2734799;87;21545;-65
2021/06/30 14:12:16;;;;;;;5.33;3.20;;;;;;;27.35;61.04;99473.37;2662830;88;21099;-65
2021/06/30 14:16:19;;;;;;;2.25;2.05;;;;;;;26.99;63.02;99476.50;2686972;88;21047;-65
2021/06/30 14:20:21;;;;;;;3.83;2.30;;;;;;;26.88;64.19;99476.92;2712270;86;21086;-64
2021/06/30 14:24:24;;;;;;;3.35;2.70;;;;;;;27.18;64.26;99485.20;2733152;87;21035;-65
2021/06/30 14:28:31;;;;;;;2.47;2.27;;;;;;;27.53;62.66;99477.66;2734324;87;21515;-65
2021/06/30 14:32:35;;;;;;;2.12;1.92;;;;;;;27.71;62.41;99477.84;2733915;87;21045;-65
2021/06/30 14:36:37;;;;;;;3.90;2.40;;;;;;;27.88;61.61;99483.16;2689224;87;21561;-65
2021/06/30 14:40:40;;;;;;;3.02;2.67;;;;;;;27.91;61.21;99473.63;2652275;89;21032;-66
2021/06/30 14:44:43;;;;;;;4.10;2.92;;;;;;;27.40;61.27;99473.94;2652281;89;21088;-66
2021/06/30 14:48:47;;;;;;;2.72;2.00;;;;;;;26.91;62.32;99483.23;2696643;87;21065;-65
2021/06/30 14:52:50;;;;;;;2.92;2.20;;;;;;;26.51;64.50;99487.05;2652867;89;20995;-64
2021/06/30 14:56:55;;;;;;;3.12;2.42;;;;;;;26.46;66.70;99485.62;2652022;88;21018;-65
2021/06/30 15:01:00;;;;;;;1.77;1.67;;;;;;;26.68;64.20;99476.63;2703514;87;21061;-66
2021/06/30 15:05:06;;;;;;;4.35;1.65;;;;;;;26.84;64.18;99478.48;2698253;87;20988;-65
2021/06/30 15:09:08;;;;;;;10.55;3.27;;;;;;;26.84;64.17;99486.67;2683026;88;21030;-65
2021/06/30 15:13:11;;;;;;;2.02;1.12;;;;;;;26.94;65.43;99488.20;2698975;87;21041;-66
2021/06/30 15:17:14;;;;;;;2.80;1.15;;;;;;;26.92;61.18;99476.73;2698973;87;21018;-66
2021/06/30 15:21:16;;;;;;;1.47;1.37;;;;;;;26.64;60.17;99479.88;2698798;87;21089;-66
2021/06/30 15:25:21;;;;;;;1.25;1.00;;;;;;;26.23;60.83;99482.02;2698773;87;21025;-65
2021/06/30 15:29:24;;;;;;;1.47;1.35;;;;;;;25.98;61.81;99493.31;2698098;87;21014;-64
2021/06/30 15:33:27;;;;;;;1.60;1.50;;;;;;;25.82;62.82;99494.41;2687387;87;21039;-65
2021/06/30 15:37:29;;;;;;;2.10;1.52;;;;;;;25.70;64.17;99490.95;2750091;85;21037;-65
2021/06/30 15:41:33;;;;;;;1.45;1.35;;;;;;;25.55;64.06;99486.04;2752273;86;21100;-67
2021/06/30 15:45:36;;;;;;;1.75;1.35;;;;;;;25.38;64.67;99488.19;2749063;86;21447;-65
2021/06/30 15:49:39;;;;;;;4.87;1.65;;;;;;;25.25;66.00;99483.84;2751384;86;21069;-65
2021/06/30 15:53:42;;;;;;;8.03;1.22;;;;;;;25.18;65.70;99474.48;2749100;86;21079;-63
2021/06/30 15:57:45;;;;;;;2.42;1.57;;;;;;;25.18;66.63;99478.56;2702335;88;21104;-65
2021/06/30 16:01:49;;;;;;;1.95;1.20;;;;;;;25.48;67.12;99477.50;2721574;87;21015;-64
2021/06/30 16:05:52;;;;;;;5.43;1.50;;;;;;;25.91;66.75;99481.21;2704065;88;21068;-64
2021/06/30 16:09:55;;;;;;;1.30;1.22;;;;;;;26.29;63.65;99465.21;2722181;87;21078;-64
2021/06/30 16:13:58;;;;;;;2.92;1.52;;;;;;;26.54;63.97;99473.45;2761798;86;21083;-65
2021/06/30 16:18:22;;;;;;;1.72;1.62;;;;;;;26.53;61.87;99474.02;2765465;85;21071;-66
2021/06/30 16:22:26;;;;;;;1.87;1.37;;;;;;;26.41;62.36;99478.19;2770316;86;21131;-65
2021/06/30 16:26:28;;;;;;;1.22;1.10;;;;;;;26.10;63.24;99480.44;2766341;86;21059;-64
2021/06/30 16:30:31;;;;;;;1.70;1.60;;;;;;;25.87;64.99;99493.16;2772005;86;21060;-65
2021/06/30 16:34:34;;;;;;;2.60;1.60;;;;;;;25.62;65.37;99504.42;2704436;87;21101;-64
2021/06/30 16:38:38;;;;;;;1.98;1.87;;;;;;;25.42;66.33;99507.03;2780395;85;21076;-64
2021/06/30 16:42:41;;;;;;;1.82;1.42;;;;;;;25.27;66.48;99502.66;2780753;85;21036;-64
2021/06/30 16:46:45;;;;;;;2.05;1.85;;;;;;;25.19;67.81;99512.02;2744819;85;21039;-64
2021/06/30 16:50:50;;;;;;;1.92;1.50;;;;;;;25.31;69.21;99520.14;2654105;89;21041;-64
2021/06/30 16:54:52;;;;;;;2.53;2.00;;;;;;;25.52;68.46;99518.13;2733227;87;21087;-64
2021/06/30 16:58:57;;;;;;;2.85;1.27;;;;;;;25.68;66.12;99521.14;2732652;87;21080;-65
2021/06/30 17:02:59;;;;;;;3.12;1.95;;;;;;;25.64;65.76;99522.70;2733238;87;21560;-65
2021/06/30 17:07:03;;;;;;;3.10;2.20;;;;;;;25.54;65.92;99532.88;2663869;88;21041;-64
2021/06/30 17:11:06;;;;;;;2.30;1.95;;;;;;;25.41;66.34;99541.30;2747474;85;21016;-65
2021/06/30 17:15:12;;;;;;;2.22;2.08;;;;;;;25.30;67.09;99541.11;2755499;85;21025;-64
2021/06/30 17:19:22;;;;;;;1.92;1.40;;;;;;;25.18;67.31;99537.58;2762549;84;21142;-64
2021/06/30 17:23:24;;;;;;;3.67;2.30;;;;;;;25.08;68.46;99541.77;2698706;88;20966;-65
2021/06/30 17:27:35;;;;;;;4.00;2.00;;;;;;;25.00;69.29;99553.55;2779958;85;21012;-65
2021/06/30 17:31:37;;;;;;;3.58;2.30;;;;;;;24.95;70.21;99550.18;2766161;85;21027;-64
2021/06/30 17:35:42;;;;;;;3.22;2.70;;;;;;;24.88;70.29;99547.58;2779615;85;21039;-64
2021/06/30 17:39:49;;;;;;;3.30;2.40;;;;;;;24.80;70.36;99547.96;2745590;85;21005;-64
2021/06/30 17:43:52;;;;;;;1.42;1.32;;;;;;;24.67;69.69;99552.54;2743270;86;21017;-65
2021/06/30 17:47:55;;;;;;;1.60;1.50;;;;;;;24.55;68.94;99559.86;2751404;85;21067;-65
2021/06/30 17:51:57;;;;;;;2.58;1.52;;;;;;;24.33;67.89;99565.87;2780287;85;21035;-64
2021/06/30 17:56:00;;;;;;;3.05;1.92;;;;;;;24.16;68.67;99573.89;2780050;85;21035;-64
2021/06/30 18:00:08;;;;;;;2.05;1.50;;;;;;;24.04;68.98;99568.95;2780045;85;21008;-64
2021/06/30 18:04:16;;;;;;;2.35;2.15;;;;;;;24.00;68.91;99568.58;2779966;85;21119;-64
2021/06/30 18:08:19;;;;;;;3.37;2.42;;;;;;;23.93;69.41;99571.91;2779734;85;21047;-64
2021/06/30 18:12:21;;;;;;;7.75;3.50;;;;;;;23.90;70.12;99577.81;2759377;85;21019;-65
2021/06/30 18:16:25;;;;;;;6.33;3.17;;;;;;;23.88;70.79;99584.00;2744965;86;21043;-67
2021/06/30 18:20:28;;;;;;;4.58;1.92;;;;;;;23.86;71.60;99584.77;2744075;85;21044;-67
2021/06/30 18:24:31;;;;;;;3.17;1.45;;;;;;;23.92;72.12;99580.61;2747964;85;21087;-66
2021/06/30 18:28:35;;;;;;;1.72;1.52;;;;;;;23.96;72.78;99589.09;2756346;85;21008;-64
2021/06/30 18:32:39;;;;;;;1.98;1.50;;;;;;;24.01;72.65;99583.81;2759047;85;20991;-63
2021/06/30 18:36:42;;;;;;;3.62;1.47;;;;;;;24.05;73.01;99580.95;2754219;85;21032;-63
2021/06/30 18:40:45;;;;;;;2.60;1.72;;;;;;;24.08;72.91;99586.47;2756603;86;21059;-63
2021/06/30 18:44:51;;;;;;;3.10;2.60;;;;;;;24.02;73.13;99590.94;2756582;86;21058;-64
2021/06/30 18:48:53;;;;;;;5.45;4.03;;;;;;;23.90;73.36;99589.52;2759616;86;21050;-65
2021/06/30 18:52:56;;;;;;;5.92;4.30;;;;;;;23.75;73.50;99587.20;2760518;85;21067;-64
2021/06/30 18:57:00;;;;;;;10.75;4.97;;;;;;;23.50;73.94;99594.12;2755042;86;21597;-64
2021/06/30 19:01:05;;;;;;;8.40;4.60;;;;;;;23.29;74.41;99598.98;2761035;86;21040;-63
2021/06/30 19:05:09;;;;;;;;;;;;;;;23.14;74.66;99600.66;2756402;86;21071;-63
2021/06/30 19:09:13;;;;;;;3.87;3.02;;;;;;;23.04;75.02;99605.79;2742072;86;20121;-64
2021/06/30 19:13:15;;;;;;;5.92;2.80;;;;;;;22.87;74.98;99598.23;2742086;86;21053;-64
2021/06/30 19:17:18;;;;;;;4.53;1.82;;;;;;;22.73;75.25;99599.41;2741350;85;21063;-63
2021/06/30 19:21:23;;;;;;;3.47;1.85;;;;;;;22.56;75.46;99612.17;2741057;85;21119;-63
2021/06/30 19:25:26;;;;;;;2.60;1.43;;;;;;;22.19;75.88;99616.06;2748315;86;21067;-63